createdAt,value
2018-08-17T00:00:03.004Z,0
2018-08-17T00:01:12.577Z,0
2018-08-17T00:02:22.149Z,0
2018-08-17T00:03:31.719Z,0
2018-08-17T00:04:41.840Z,0
2018-08-17T00:05:51.422Z,0
2018-08-17T00:07:01.536Z,0
2018-08-17T00:08:11.379Z,0
2018-08-17T00:09:21.223Z,0
2018-08-17T00:10:30.795Z,0
2018-08-17T00:11:40.103Z,0
2018-08-17T00:12:50.217Z,0
2018-08-17T00:13:59.522Z,0
2018-08-17T00:15:09.371Z,0
2018-08-17T00:16:19.527Z,0
2018-08-17T00:17:29.103Z,0
2018-08-17T00:18:38.675Z,0
2018-08-17T00:19:48.256Z,0
2018-08-17T00:20:58.114Z,0
2018-08-17T00:22:07.472Z,0
2018-08-17T00:23:17.043Z,0
2018-08-17T00:24:26.896Z,0
2018-08-17T00:25:37.005Z,0
2018-08-17T00:26:46.844Z,0
2018-08-17T00:27:56.696Z,0
2018-08-17T00:29:06.542Z,0
2018-08-17T00:30:15.579Z,0
2018-08-17T00:31:25.426Z,0
2018-08-17T00:32:34.996Z,0
2018-08-17T00:33:44.890Z,0
2018-08-17T00:34:54.470Z,0
2018-08-17T00:36:03.775Z,0
2018-08-17T00:37:13.887Z,0
2018-08-17T00:38:23.191Z,0
2018-08-17T00:39:33.034Z,0
2018-08-17T00:40:42.337Z,0
2018-08-17T00:41:51.909Z,0
2018-08-17T00:43:01.749Z,0
2018-08-17T00:44:11.048Z,0
2018-08-17T00:45:20.902Z,0
2018-08-17T00:46:31.019Z,0
2018-08-17T00:47:40.318Z,0
2018-08-17T00:48:50.431Z,0
2018-08-17T00:50:00.336Z,0
2018-08-17T00:51:10.194Z,0
2018-08-17T00:52:19.769Z,0
2018-08-17T00:53:29.613Z,0
2018-08-17T00:54:38.912Z,0
2018-08-17T00:55:48.485Z,0
2018-08-17T00:56:58.329Z,0
2018-08-17T00:58:07.642Z,0
2018-08-17T00:59:16.944Z,0
2018-08-17T01:00:26.519Z,0
2018-08-17T01:01:36.108Z,0
2018-08-17T01:02:45.957Z,0
2018-08-17T01:03:55.530Z,0
2018-08-17T01:05:04.836Z,0
2018-08-17T01:06:14.682Z,0
2018-08-17T01:07:24.523Z,0
2018-08-17T01:08:34.639Z,0
2018-08-17T01:09:44.489Z,0
2018-08-17T01:10:54.369Z,0
2018-08-17T01:12:04.482Z,0
2018-08-17T01:13:14.060Z,0
2018-08-17T01:14:24.193Z,0
2018-08-17T01:15:34.036Z,0
2018-08-17T01:16:43.609Z,0
2018-08-17T01:17:53.184Z,0
2018-08-17T01:19:03.035Z,0
2018-08-17T01:20:13.150Z,0
2018-08-17T01:21:22.741Z,0
2018-08-17T01:22:32.038Z,0
2018-08-17T01:23:41.341Z,0
2018-08-17T01:24:51.185Z,0
2018-08-17T01:26:00.770Z,0
2018-08-17T01:27:10.610Z,0
2018-08-17T01:28:20.451Z,0
2018-08-17T01:29:30.035Z,0
2018-08-17T01:30:40.154Z,0
2018-08-17T01:31:49.724Z,0
2018-08-17T01:32:59.568Z,0
2018-08-17T01:34:09.142Z,0
2018-08-17T01:35:18.712Z,0
2018-08-17T01:36:28.564Z,0
2018-08-17T01:37:37.873Z,0
2018-08-17T01:38:47.177Z,0
2018-08-17T01:39:57.025Z,0
2018-08-17T01:41:07.138Z,0
2018-08-17T01:42:16.712Z,0
2018-08-17T01:43:26.280Z,0
2018-08-17T01:44:35.586Z,0
2018-08-17T01:45:44.888Z,0
2018-08-17T01:46:54.729Z,0
2018-08-17T01:48:04.307Z,0
2018-08-17T01:49:13.884Z,0
2018-08-17T01:50:23.459Z,0
2018-08-17T01:51:32.489Z,0
2018-08-17T01:52:42.328Z,0
2018-08-17T01:53:52.173Z,0
2018-08-17T01:55:01.759Z,0
2018-08-17T01:56:11.335Z,0
2018-08-17T01:57:20.911Z,0
2018-08-17T01:58:30.495Z,0
2018-08-17T01:59:40.333Z,0
2018-08-17T02:00:49.909Z,0
2018-08-17T02:02:00.072Z,0
2018-08-17T02:03:09.370Z,0
2018-08-17T02:04:19.214Z,0
2018-08-17T02:05:29.321Z,0
2018-08-17T02:06:38.894Z,0
2018-08-17T02:07:48.738Z,0
2018-08-17T02:08:58.584Z,0
2018-08-17T02:10:08.702Z,0
2018-08-17T02:11:18.282Z,0
2018-08-17T02:12:28.387Z,0
2018-08-17T02:13:37.956Z,0
2018-08-17T02:14:48.734Z,0
2018-08-17T02:15:58.928Z,0
2018-08-17T02:17:08.826Z,0
2018-08-17T02:18:18.402Z,0
2018-08-17T02:19:27.704Z,0
2018-08-17T02:20:37.562Z,0
2018-08-17T02:21:47.409Z,0
2018-08-17T02:22:57.568Z,0
2018-08-17T02:24:07.688Z,0
2018-08-17T02:25:17.543Z,0
2018-08-17T02:26:27.392Z,0
2018-08-17T02:27:37.518Z,0
2018-08-17T02:28:47.688Z,0
2018-08-17T02:29:57.304Z,0
2018-08-17T02:31:07.190Z,0
2018-08-17T02:32:16.767Z,0
2018-08-17T02:33:26.618Z,0
2018-08-17T02:34:36.202Z,0
2018-08-17T02:35:46.063Z,0
2018-08-17T02:36:55.971Z,0
2018-08-17T02:38:06.096Z,0
2018-08-17T02:39:15.684Z,0
2018-08-17T02:40:25.529Z,0
2018-08-17T02:41:34.836Z,0
2018-08-17T02:42:44.420Z,0
2018-08-17T02:43:54.280Z,0
2018-08-17T02:45:04.423Z,0
2018-08-17T02:46:14.272Z,0
2018-08-17T02:47:23.872Z,0
2018-08-17T02:48:33.733Z,0
2018-08-17T02:49:43.320Z,0
2018-08-17T02:50:53.177Z,0
2018-08-17T02:52:03.291Z,0
2018-08-17T02:53:12.863Z,0
2018-08-17T02:54:22.987Z,0
2018-08-17T02:55:32.838Z,0
2018-08-17T02:56:42.979Z,0
2018-08-17T02:57:52.833Z,0
2018-08-17T02:59:02.406Z,0
2018-08-17T03:00:11.735Z,0
2018-08-17T03:01:21.601Z,0
2018-08-17T03:02:31.717Z,0
2018-08-17T03:03:41.294Z,0
2018-08-17T03:04:51.145Z,0
2018-08-17T03:06:00.996Z,0
2018-08-17T03:07:10.594Z,0
2018-08-17T03:08:20.442Z,0
2018-08-17T03:09:30.027Z,0
2018-08-17T03:10:40.150Z,0
2018-08-17T03:11:49.459Z,0
2018-08-17T03:12:59.041Z,0
2018-08-17T03:14:08.351Z,0
2018-08-17T03:15:17.989Z,0
2018-08-17T03:16:27.838Z,0
2018-08-17T03:17:37.696Z,0
2018-08-17T03:18:47.822Z,0
2018-08-17T03:19:57.938Z,0
2018-08-17T03:21:07.795Z,0
2018-08-17T03:22:17.098Z,0
2018-08-17T03:23:26.138Z,0
2018-08-17T03:24:35.715Z,0
2018-08-17T03:25:45.561Z,0
2018-08-17T03:26:55.139Z,0
2018-08-17T03:28:04.981Z,0
2018-08-17T03:29:14.820Z,0
2018-08-17T03:30:24.671Z,0
2018-08-17T03:31:34.530Z,0
2018-08-17T03:32:43.839Z,0
2018-08-17T03:33:53.143Z,0
2018-08-17T03:35:03.256Z,4
2018-08-17T03:36:12.828Z,4
2018-08-17T03:37:23.436Z,0
2018-08-17T03:38:33.281Z,4
2018-08-17T03:39:42.859Z,4
2018-08-17T03:40:52.710Z,4
2018-08-17T03:42:02.555Z,8
2018-08-17T03:43:11.873Z,8
2018-08-17T03:44:21.446Z,8
2018-08-17T03:45:31.027Z,8
2018-08-17T03:46:40.602Z,12
2018-08-17T03:47:49.906Z,12
2018-08-17T03:48:59.210Z,12
2018-08-17T03:50:08.889Z,16
2018-08-17T03:51:18.465Z,20
2018-08-17T03:52:28.307Z,24
2018-08-17T03:53:37.895Z,28
2018-08-17T03:54:48.009Z,36
2018-08-17T03:55:57.859Z,44
2018-08-17T03:57:07.705Z,52
2018-08-17T03:58:17.550Z,64
2018-08-17T03:59:26.582Z,76
2018-08-17T04:00:35.885Z,84
2018-08-17T04:01:45.734Z,100
2018-08-17T04:02:55.048Z,108
2018-08-17T04:04:04.624Z,116
2018-08-17T04:05:14.468Z,120
2018-08-17T04:06:23.773Z,136
2018-08-17T04:07:33.900Z,156
2018-08-17T04:08:43.475Z,184
2018-08-17T04:09:53.049Z,212
2018-08-17T04:11:02.633Z,240
2018-08-17T04:12:11.936Z,264
2018-08-17T04:13:21.778Z,276
2018-08-17T04:14:31.628Z,292
2018-08-17T04:15:42.024Z,312
2018-08-17T04:16:52.136Z,336
2018-08-17T04:18:01.172Z,360
2018-08-17T04:19:11.068Z,392
2018-08-17T04:20:20.906Z,424
2018-08-17T04:21:30.207Z,460
2018-08-17T04:22:40.329Z,492
2018-08-17T04:23:50.045Z,528
2018-08-17T04:25:00.253Z,580
2018-08-17T04:26:09.832Z,616
2018-08-17T04:27:19.682Z,624
2018-08-17T04:28:28.990Z,632
2018-08-17T04:29:38.567Z,664
2018-08-17T04:30:48.137Z,712
2018-08-17T04:31:57.712Z,776
2018-08-17T04:33:07.290Z,828
2018-08-17T04:34:17.410Z,880
2018-08-17T04:35:27.190Z,924
2018-08-17T04:36:36.624Z,952
2018-08-17T04:37:46.191Z,1000
2018-08-17T04:38:56.041Z,1088
2018-08-17T04:40:06.160Z,1184
2018-08-17T04:41:16.000Z,1256
2018-08-17T04:42:26.110Z,1240
2018-08-17T04:43:35.459Z,1160
2018-08-17T04:44:45.414Z,1100
2018-08-17T04:45:54.179Z,1104
2018-08-17T04:47:04.021Z,1128
2018-08-17T04:48:13.876Z,1160
2018-08-17T04:49:24.172Z,1148
2018-08-17T04:50:34.103Z,1136
2018-08-17T04:51:44.268Z,1148
2018-08-17T04:52:54.106Z,1148
2018-08-17T04:54:03.682Z,1156
2018-08-17T04:55:13.258Z,1204
2018-08-17T04:56:23.132Z,1216
2018-08-17T04:57:32.818Z,1212
2018-08-17T04:58:42.125Z,1228
2018-08-17T04:59:51.701Z,1240
2018-08-17T05:01:01.003Z,1244
2018-08-17T05:02:10.858Z,1280
2018-08-17T05:03:20.522Z,1328
2018-08-17T05:04:30.393Z,1364
2018-08-17T05:05:39.694Z,1412
2018-08-17T05:06:48.992Z,1488
2018-08-17T05:07:58.828Z,1576
2018-08-17T05:09:09.124Z,1680
2018-08-17T05:10:18.155Z,1780
2018-08-17T05:11:28.323Z,1928
2018-08-17T05:12:38.170Z,2116
2018-08-17T05:13:48.290Z,2264
2018-08-17T05:14:58.136Z,2272
2018-08-17T05:16:07.984Z,2136
2018-08-17T05:17:18.093Z,2012
2018-08-17T05:18:27.393Z,1964
2018-08-17T05:19:37.521Z,1920
2018-08-17T05:20:46.821Z,1872
2018-08-17T05:21:56.451Z,1848
2018-08-17T05:23:06.031Z,1880
2018-08-17T05:24:15.884Z,1936
2018-08-17T05:25:25.724Z,2056
2018-08-17T05:26:35.026Z,2224
2018-08-17T05:27:44.333Z,2408
2018-08-17T05:28:53.912Z,2676
2018-08-17T05:30:03.773Z,3012
2018-08-17T05:31:13.878Z,3420
2018-08-17T05:32:23.718Z,3932
2018-08-17T05:33:33.293Z,4588
2018-08-17T05:34:43.136Z,5268
2018-08-17T05:35:53.129Z,5764
2018-08-17T05:37:03.343Z,5808
2018-08-17T05:38:12.917Z,5508
2018-08-17T05:39:23.031Z,5268
2018-08-17T05:40:32.920Z,5156
2018-08-17T05:41:42.499Z,5124
2018-08-17T05:42:51.860Z,5072
2018-08-17T05:44:01.433Z,4940
2018-08-17T05:45:11.908Z,4748
2018-08-17T05:46:21.779Z,4536
2018-08-17T05:47:31.635Z,4256
2018-08-17T05:48:41.484Z,3760
2018-08-17T05:49:51.056Z,3220
2018-08-17T05:51:00.631Z,2828
2018-08-17T05:52:10.209Z,2552
2018-08-17T05:53:19.778Z,2384
2018-08-17T05:54:29.354Z,2324
2018-08-17T05:55:38.928Z,2340
2018-08-17T05:56:48.730Z,2516
2018-08-17T05:57:58.848Z,2760
2018-08-17T05:59:08.739Z,3012
2018-08-17T06:00:18.586Z,3296
2018-08-17T06:01:28.440Z,3524
2018-08-17T06:02:38.295Z,3712
2018-08-17T06:03:48.431Z,3900
2018-08-17T06:04:58.559Z,3824
2018-08-17T06:06:07.867Z,3668
2018-08-17T06:07:17.442Z,3580
2018-08-17T06:08:27.289Z,3548
2018-08-17T06:09:36.858Z,3472
2018-08-17T06:10:46.848Z,3480
2018-08-17T06:11:56.897Z,3616
2018-08-17T06:13:06.477Z,3508
2018-08-17T06:14:16.598Z,3356
2018-08-17T06:15:25.912Z,3424
2018-08-17T06:16:35.228Z,3696
2018-08-17T06:17:44.858Z,4036
2018-08-17T06:18:54.432Z,4300
2018-08-17T06:20:04.281Z,4488
2018-08-17T06:21:14.137Z,4428
2018-08-17T06:22:23.715Z,4156
2018-08-17T06:23:33.080Z,3680
2018-08-17T06:24:42.926Z,3316
2018-08-17T06:25:52.503Z,3388
2018-08-17T06:27:02.352Z,3840
2018-08-17T06:28:12.490Z,4336
2018-08-17T06:29:22.063Z,4940
2018-08-17T06:30:31.911Z,5280
2018-08-17T06:31:41.625Z,5244
2018-08-17T06:32:51.528Z,4828
2018-08-17T06:34:01.110Z,4424
2018-08-17T06:35:10.739Z,4392
2018-08-17T06:36:21.002Z,4500
2018-08-17T06:37:31.491Z,4716
2018-08-17T06:38:40.801Z,4996
2018-08-17T06:39:50.931Z,5208
2018-08-17T06:41:00.511Z,5176
2018-08-17T06:42:10.637Z,4856
2018-08-17T06:43:20.489Z,4544
2018-08-17T06:44:30.063Z,4336
2018-08-17T06:45:39.906Z,4628
2018-08-17T06:46:49.799Z,5188
2018-08-17T06:47:59.649Z,5384
2018-08-17T06:49:09.230Z,5380
2018-08-17T06:50:18.800Z,5476
2018-08-17T06:51:28.381Z,5464
2018-08-17T06:52:38.222Z,5448
2018-08-17T06:53:48.069Z,5504
2018-08-17T06:54:57.916Z,5716
2018-08-17T06:56:07.767Z,6096
2018-08-17T06:57:18.332Z,6940
2018-08-17T06:58:28.434Z,7848
2018-08-17T06:59:37.474Z,8528
2018-08-17T07:00:47.048Z,8912
2018-08-17T07:01:56.348Z,9092
2018-08-17T07:03:06.190Z,9532
2018-08-17T07:04:16.070Z,9804
2018-08-17T07:05:25.915Z,10380
2018-08-17T07:06:35.490Z,10880
2018-08-17T07:07:45.341Z,11340
2018-08-17T07:08:55.217Z,11220
2018-08-17T07:10:04.768Z,10648
2018-08-17T07:11:14.353Z,9912
2018-08-17T07:12:24.468Z,8800
2018-08-17T07:13:34.044Z,7884
2018-08-17T07:14:43.619Z,7736
2018-08-17T07:15:53.230Z,7604
2018-08-17T07:17:03.166Z,7320
2018-08-17T07:18:12.759Z,7148
2018-08-17T07:19:22.338Z,7032
2018-08-17T07:20:32.191Z,7148
2018-08-17T07:21:41.709Z,7200
2018-08-17T07:22:51.734Z,6908
2018-08-17T07:24:01.589Z,6948
2018-08-17T07:25:11.719Z,7740
2018-08-17T07:26:21.835Z,8116
2018-08-17T07:27:31.681Z,7920
2018-08-17T07:28:40.990Z,7044
2018-08-17T07:29:50.564Z,6092
2018-08-17T07:31:00.148Z,5088
2018-08-17T07:32:09.995Z,4568
2018-08-17T07:33:19.568Z,4384
2018-08-17T07:34:28.603Z,4272
2018-08-17T07:35:38.268Z,4148
2018-08-17T07:36:47.931Z,3904
2018-08-17T07:37:58.059Z,3532
2018-08-17T07:39:07.418Z,3240
2018-08-17T07:40:17.280Z,3236
2018-08-17T07:41:27.128Z,3472
2018-08-17T07:42:36.474Z,3916
2018-08-17T07:43:46.590Z,4396
2018-08-17T07:44:56.433Z,4808
2018-08-17T07:46:06.042Z,5176
2018-08-17T07:47:15.136Z,5476
2018-08-17T07:48:25.689Z,5744
2018-08-17T07:49:35.808Z,5692
2018-08-17T07:50:45.655Z,5448
2018-08-17T07:51:55.774Z,5216
2018-08-17T07:53:05.635Z,5072
2018-08-17T07:54:15.480Z,4960
2018-08-17T07:55:25.642Z,5080
2018-08-17T07:56:34.994Z,5296
2018-08-17T07:57:45.112Z,5144
2018-08-17T07:58:55.272Z,4928
2018-08-17T08:00:05.445Z,5200
2018-08-17T08:01:15.023Z,5864
2018-08-17T08:02:24.388Z,6808
2018-08-17T08:03:33.966Z,7732
2018-08-17T08:04:43.808Z,8256
2018-08-17T08:05:53.111Z,8172
2018-08-17T08:07:03.226Z,7620
2018-08-17T08:08:12.808Z,6944
2018-08-17T08:09:22.661Z,6504
2018-08-17T08:10:32.808Z,6440
2018-08-17T08:11:42.167Z,6520
2018-08-17T08:12:51.748Z,6728
2018-08-17T08:14:01.059Z,6848
2018-08-17T08:15:11.184Z,6420
2018-08-17T08:16:20.497Z,5644
2018-08-17T08:17:30.078Z,5048
2018-08-17T08:18:39.655Z,4800
2018-08-17T08:19:49.550Z,4364
2018-08-17T08:20:59.665Z,3688
2018-08-17T08:22:09.516Z,3332
2018-08-17T08:23:19.097Z,3524
2018-08-17T08:24:28.951Z,4008
2018-08-17T08:25:38.528Z,4364
2018-08-17T08:26:47.836Z,4240
2018-08-17T08:27:57.148Z,3656
2018-08-17T08:29:06.452Z,2912
2018-08-17T08:30:16.572Z,2428
2018-08-17T08:31:26.153Z,2216
2018-08-17T08:32:36.885Z,2164
2018-08-17T08:33:46.547Z,2312
2018-08-17T08:34:56.396Z,2628
2018-08-17T08:36:06.241Z,2988
2018-08-17T08:37:16.356Z,3108
2018-08-17T08:38:26.487Z,2964
2018-08-17T08:39:35.794Z,2732
2018-08-17T08:40:45.639Z,2632
2018-08-17T08:41:55.761Z,2616
2018-08-17T08:43:05.981Z,2672
2018-08-17T08:44:15.291Z,2692
2018-08-17T08:45:25.184Z,2632
2018-08-17T08:46:34.811Z,2624
2018-08-17T08:47:44.657Z,2836
2018-08-17T08:48:54.789Z,3172
2018-08-17T08:50:04.367Z,3480
2018-08-17T08:51:14.209Z,3480
2018-08-17T08:52:23.791Z,3292
2018-08-17T08:53:33.904Z,3128
2018-08-17T08:54:43.801Z,3112
2018-08-17T08:55:53.187Z,3092
2018-08-17T08:57:02.517Z,2956
2018-08-17T08:58:12.092Z,2784
2018-08-17T08:59:22.204Z,2700
2018-08-17T09:00:32.057Z,2636
2018-08-17T09:01:42.126Z,2620
2018-08-17T09:02:52.490Z,2668
2018-08-17T09:04:02.615Z,2864
2018-08-17T09:05:12.191Z,3024
2018-08-17T09:06:22.092Z,3232
2018-08-17T09:07:31.981Z,3384
2018-08-17T09:08:41.832Z,3540
2018-08-17T09:09:51.416Z,3628
2018-08-17T09:11:00.717Z,3672
2018-08-17T09:12:10.566Z,3764
2018-08-17T09:13:20.139Z,3808
2018-08-17T09:14:29.992Z,3772
2018-08-17T09:15:39.851Z,3716
2018-08-17T09:16:49.971Z,3620
2018-08-17T09:17:59.822Z,3500
2018-08-17T09:19:09.671Z,3412
2018-08-17T09:20:19.746Z,3428
2018-08-17T09:21:29.818Z,3552
2018-08-17T09:22:39.927Z,3720
2018-08-17T09:23:50.041Z,3960
2018-08-17T09:25:00.157Z,4284
2018-08-17T09:26:10.012Z,4616
2018-08-17T09:27:19.585Z,4980
2018-08-17T09:28:29.709Z,5300
2018-08-17T09:29:39.554Z,5696
2018-08-17T09:30:49.398Z,6180
2018-08-17T09:31:58.974Z,6704
2018-08-17T09:33:08.549Z,7192
2018-08-17T09:34:17.851Z,7628
2018-08-17T09:35:27.699Z,8012
2018-08-17T09:36:37.542Z,8312
2018-08-17T09:37:46.844Z,8548
2018-08-17T09:38:56.699Z,8584
2018-08-17T09:40:06.058Z,8924
2018-08-17T09:41:15.954Z,9124
2018-08-17T09:42:25.793Z,9056
2018-08-17T09:43:35.644Z,8988
2018-08-17T09:44:44.958Z,8948
2018-08-17T09:45:54.803Z,8976
2018-08-17T09:47:04.703Z,8992
2018-08-17T09:48:14.016Z,9056
2018-08-17T09:49:23.319Z,9932
2018-08-17T09:50:32.351Z,10400
2018-08-17T09:51:42.196Z,9880
2018-08-17T09:52:52.089Z,9540
2018-08-17T09:54:02.203Z,11124
2018-08-17T09:55:12.330Z,10548
2018-08-17T09:56:22.196Z,9824
2018-08-17T09:57:32.212Z,10476
2018-08-17T09:58:42.107Z,9692
2018-08-17T09:59:51.407Z,12544
2018-08-17T10:01:00.709Z,13992
2018-08-17T10:02:10.012Z,13436
2018-08-17T10:03:19.326Z,13372
2018-08-17T10:04:28.374Z,13064
2018-08-17T10:05:38.493Z,12204
2018-08-17T10:06:48.337Z,11132
2018-08-17T10:07:58.452Z,12284
2018-08-17T10:09:08.327Z,12432
2018-08-17T10:10:18.193Z,12400
2018-08-17T10:11:28.039Z,12116
2018-08-17T10:12:37.882Z,12656
2018-08-17T10:13:48.004Z,11584
2018-08-17T10:14:57.309Z,11316
2018-08-17T10:16:07.160Z,11172
2018-08-17T10:17:17.008Z,10304
2018-08-17T10:18:26.860Z,9724
2018-08-17T10:19:36.169Z,9920
2018-08-17T10:20:46.348Z,10488
2018-08-17T10:21:58.454Z,10340
2018-08-17T10:23:08.436Z,9924
2018-08-17T10:24:18.022Z,9148
2018-08-17T10:25:27.889Z,8392
2018-08-17T10:26:38.005Z,8428
2018-08-17T10:27:47.859Z,7504
2018-08-17T10:28:57.431Z,8608
2018-08-17T10:30:07.275Z,9696
2018-08-17T10:31:16.579Z,9964
2018-08-17T10:32:25.885Z,8040
2018-08-17T10:33:35.472Z,5772
2018-08-17T10:34:45.329Z,4976
2018-08-17T10:35:55.178Z,4696
2018-08-17T10:37:04.756Z,7440
2018-08-17T10:38:14.605Z,9600
2018-08-17T10:39:24.461Z,12792
2018-08-17T10:40:34.589Z,14544
2018-08-17T10:41:44.482Z,12276
2018-08-17T10:42:54.053Z,15056
2018-08-17T10:44:03.627Z,15128
2018-08-17T10:45:13.482Z,15876
2018-08-17T10:46:23.597Z,16796
2018-08-17T10:47:33.462Z,16732
2018-08-17T10:48:43.166Z,15264
2018-08-17T10:49:53.152Z,13420
2018-08-17T10:51:02.738Z,13068
2018-08-17T10:52:12.322Z,19040
2018-08-17T10:53:21.901Z,19968
2018-08-17T10:54:31.758Z,24928
2018-08-17T10:55:42.195Z,21216
2018-08-17T10:56:51.765Z,22560
2018-08-17T10:58:01.879Z,23328
2018-08-17T10:59:11.784Z,20160
2018-08-17T11:00:21.361Z,18144
2018-08-17T11:01:31.205Z,17856
2018-08-17T11:02:40.778Z,17408
2018-08-17T11:03:50.899Z,16592
2018-08-17T11:05:01.016Z,15772
2018-08-17T11:06:10.321Z,14828
2018-08-17T11:07:19.630Z,14572
2018-08-17T11:08:28.934Z,14640
2018-08-17T11:09:38.240Z,14832
2018-08-17T11:10:47.814Z,14868
2018-08-17T11:11:57.724Z,15796
2018-08-17T11:13:07.303Z,16584
2018-08-17T11:14:16.884Z,16864
2018-08-17T11:15:25.922Z,18784
2018-08-17T11:16:35.764Z,20192
2018-08-17T11:17:45.622Z,16736
2018-08-17T11:18:54.927Z,17088
2018-08-17T11:20:04.780Z,16244
2018-08-17T11:21:14.631Z,16080
2018-08-17T11:22:24.749Z,16160
2018-08-17T11:23:34.591Z,15492
2018-08-17T11:24:44.710Z,17984
2018-08-17T11:25:54.557Z,17056
2018-08-17T11:27:04.140Z,19392
2018-08-17T11:28:13.718Z,21120
2018-08-17T11:29:23.565Z,20960
2018-08-17T11:30:33.432Z,18400
2018-08-17T11:31:43.287Z,18464
2018-08-17T11:32:53.400Z,19552
2018-08-17T11:34:02.988Z,18720
2018-08-17T11:35:12.834Z,19968
2018-08-17T11:36:22.682Z,22496
2018-08-17T11:37:32.804Z,21760
2018-08-17T11:38:42.393Z,23680
2018-08-17T11:39:52.297Z,24576
2018-08-17T11:41:02.431Z,24544
2018-08-17T11:42:12.015Z,16672
2018-08-17T11:43:21.592Z,12436
2018-08-17T11:44:31.441Z,12832
2018-08-17T11:45:41.290Z,12468
2018-08-17T11:46:50.865Z,14700
2018-08-17T11:48:00.714Z,20160
2018-08-17T11:49:10.297Z,19488
2018-08-17T11:50:19.607Z,19904
2018-08-17T11:51:29.514Z,15784
2018-08-17T11:52:39.630Z,14968
2018-08-17T11:53:49.927Z,13268
2018-08-17T11:54:59.273Z,11868
2018-08-17T11:56:08.587Z,10736
2018-08-17T11:57:18.435Z,12032
2018-08-17T11:58:28.018Z,10132
2018-08-17T11:59:38.137Z,12204
2018-08-17T12:00:48.250Z,13780
2018-08-17T12:01:58.572Z,11936
2018-08-17T12:03:08.537Z,11584
2018-08-17T12:04:18.125Z,11080
2018-08-17T12:05:27.974Z,8812
2018-08-17T12:06:38.110Z,8536
2018-08-17T12:07:47.415Z,8136
2018-08-17T12:08:56.995Z,7572
2018-08-17T12:10:06.849Z,7312
2018-08-17T12:11:16.969Z,6168
2018-08-17T12:12:26.276Z,4836
2018-08-17T12:13:35.315Z,5396
2018-08-17T12:14:45.214Z,6484
2018-08-17T12:15:55.065Z,7212
2018-08-17T12:17:04.640Z,10384
2018-08-17T12:18:14.485Z,13212
2018-08-17T12:19:23.794Z,13220
2018-08-17T12:20:33.384Z,13848
2018-08-17T12:21:42.694Z,12248
2018-08-17T12:22:52.822Z,10732
2018-08-17T12:24:02.412Z,10816
2018-08-17T12:25:12.640Z,11836
2018-08-17T12:26:22.441Z,14144
2018-08-17T12:27:32.558Z,16896
2018-08-17T12:28:42.145Z,15500
2018-08-17T12:29:51.986Z,15784
2018-08-17T12:31:02.147Z,15472
2018-08-17T12:32:12.328Z,15500
2018-08-17T12:33:22.019Z,15112
2018-08-17T12:34:31.595Z,14036
2018-08-17T12:35:41.442Z,12204
2018-08-17T12:36:50.756Z,9220
2018-08-17T12:38:00.337Z,8932
2018-08-17T12:39:09.642Z,8316
2018-08-17T12:40:20.037Z,8456
2018-08-17T12:41:29.901Z,8952
2018-08-17T12:42:39.221Z,8804
2018-08-17T12:43:48.861Z,8440
2018-08-17T12:44:58.435Z,8356
2018-08-17T12:46:08.584Z,8312
2018-08-17T12:47:18.702Z,8796
2018-08-17T12:48:28.552Z,10572
2018-08-17T12:49:38.721Z,11940
2018-08-17T12:50:48.316Z,12156
2018-08-17T12:51:57.898Z,12264
2018-08-17T12:53:08.012Z,11996
2018-08-17T12:54:17.588Z,11064
2018-08-17T12:55:27.488Z,10084
2018-08-17T12:56:37.340Z,9808
2018-08-17T12:57:47.190Z,9800
2018-08-17T12:58:57.045Z,9784
2018-08-17T13:00:06.351Z,10720
2018-08-17T13:01:15.388Z,10584
2018-08-17T13:02:25.244Z,9840
2018-08-17T13:03:34.820Z,9916
2018-08-17T13:04:44.675Z,10036
2018-08-17T13:05:54.520Z,9956
2018-08-17T13:07:04.382Z,10692
2018-08-17T13:08:14.497Z,9692
2018-08-17T13:09:24.624Z,6640
2018-08-17T13:10:34.472Z,4636
2018-08-17T13:11:43.778Z,3608
2018-08-17T13:12:53.426Z,3660
2018-08-17T13:14:02.746Z,3340
2018-08-17T13:15:12.639Z,2936
2018-08-17T13:16:21.960Z,2860
2018-08-17T13:17:32.256Z,2952
2018-08-17T13:18:41.831Z,3252
2018-08-17T13:19:51.952Z,3596
2018-08-17T13:21:01.530Z,4072
2018-08-17T13:22:10.852Z,4624
2018-08-17T13:23:20.707Z,5368
2018-08-17T13:24:30.286Z,6420
2018-08-17T13:25:40.138Z,7520
2018-08-17T13:26:49.708Z,9016
2018-08-17T13:27:59.557Z,10068
2018-08-17T13:29:09.144Z,11352
2018-08-17T13:30:19.043Z,12000
2018-08-17T13:31:28.349Z,13252
2018-08-17T13:32:37.924Z,13616
2018-08-17T13:33:47.503Z,13408
2018-08-17T13:34:57.636Z,14244
2018-08-17T13:36:07.637Z,14788
2018-08-17T13:37:17.982Z,15800
2018-08-17T13:38:27.558Z,15404
2018-08-17T13:39:37.680Z,13352
2018-08-17T13:40:47.526Z,11888
2018-08-17T13:41:56.881Z,12344
2018-08-17T13:43:06.211Z,12232
2018-08-17T13:44:16.332Z,12260
2018-08-17T13:45:25.637Z,11368
2018-08-17T13:46:34.944Z,9528
2018-08-17T13:47:43.988Z,8664
2018-08-17T13:48:53.885Z,9092
2018-08-17T13:50:03.462Z,11008
2018-08-17T13:51:12.502Z,11844
2018-08-17T13:52:22.355Z,12276
2018-08-17T13:53:31.937Z,14728
2018-08-17T13:54:41.515Z,15360
2018-08-17T13:55:51.091Z,13312
2018-08-17T13:57:00.673Z,10412
2018-08-17T13:58:10.251Z,9024
2018-08-17T13:59:20.371Z,8316
2018-08-17T14:00:29.741Z,8348
2018-08-17T14:01:39.599Z,9316
2018-08-17T14:02:49.444Z,9880
2018-08-17T14:03:58.751Z,10888
2018-08-17T14:05:08.604Z,13076
2018-08-17T14:06:18.180Z,14832
2018-08-17T14:07:28.031Z,15388
2018-08-17T14:08:37.613Z,16056
2018-08-17T14:09:47.468Z,18688
2018-08-17T14:10:57.045Z,22176
2018-08-17T14:12:06.635Z,23072
2018-08-17T14:13:15.949Z,24320
2018-08-17T14:14:25.797Z,22976
2018-08-17T14:15:35.482Z,21728
2018-08-17T14:16:45.186Z,22208
2018-08-17T14:17:55.030Z,21312
2018-08-17T14:19:04.621Z,29120
2018-08-17T14:20:14.204Z,24992
2018-08-17T14:21:23.784Z,24128
2018-08-17T14:22:33.468Z,24640
2018-08-17T14:23:43.311Z,23616
2018-08-17T14:24:53.163Z,24352
2018-08-17T14:26:02.742Z,25184
2018-08-17T14:27:12.054Z,23712
2018-08-17T14:28:21.634Z,21792
2018-08-17T14:29:31.215Z,22272
2018-08-17T14:30:41.086Z,23456
2018-08-17T14:31:50.929Z,26048
2018-08-17T14:33:00.533Z,26976
2018-08-17T14:34:10.426Z,25472
2018-08-17T14:35:20.734Z,26240
2018-08-17T14:36:31.053Z,28960
2018-08-17T14:37:40.638Z,38112
2018-08-17T14:38:50.494Z,69376
2018-08-17T14:40:00.084Z,56000
2018-08-17T14:41:10.199Z,42464
2018-08-17T14:42:20.323Z,53440
2018-08-17T14:43:30.441Z,35808
2018-08-17T14:44:40.021Z,39232
2018-08-17T14:45:49.889Z,50944
2018-08-17T14:46:58.660Z,82912
2018-08-17T14:48:08.252Z,94592
2018-08-17T14:49:18.113Z,94976
2018-08-17T14:50:27.975Z,75904
2018-08-17T14:51:37.828Z,96960
2018-08-17T14:52:48.076Z,96192
2018-08-17T14:53:57.932Z,95072
2018-08-17T14:55:07.515Z,88640
2018-08-17T14:56:17.372Z,88864
2018-08-17T14:57:27.240Z,17440
2018-08-17T14:58:37.143Z,12048
2018-08-17T14:59:47.312Z,10292
2018-08-17T15:00:56.944Z,10536
2018-08-17T15:02:06.879Z,12100
2018-08-17T15:03:17.007Z,64416
2018-08-17T15:04:26.870Z,90080
2018-08-17T15:05:36.464Z,13460
2018-08-17T15:06:45.791Z,11448
2018-08-17T15:07:55.300Z,11464
2018-08-17T15:09:04.617Z,14644
2018-08-17T15:10:14.475Z,19360
2018-08-17T15:11:24.062Z,38336
2018-08-17T15:12:33.397Z,85184
2018-08-17T15:13:43.596Z,85664
2018-08-17T15:14:53.185Z,80640
2018-08-17T15:16:02.771Z,77792
2018-08-17T15:17:12.628Z,79232
2018-08-17T15:18:22.221Z,76768
2018-08-17T15:19:31.806Z,76192
2018-08-17T15:20:41.661Z,74976
2018-08-17T15:21:51.251Z,75872
2018-08-17T15:23:00.569Z,78848
2018-08-17T15:24:10.428Z,77376
2018-08-17T15:25:20.561Z,75808
2018-08-17T15:26:30.518Z,76672
2018-08-17T15:27:40.193Z,79616
2018-08-17T15:28:50.044Z,79200
2018-08-17T15:29:59.898Z,79104
2018-08-17T15:31:10.021Z,80384
2018-08-17T15:32:19.611Z,83296
2018-08-17T15:33:29.737Z,83136
2018-08-17T15:34:39.325Z,82144
2018-08-17T15:35:49.184Z,82944
2018-08-17T15:36:59.317Z,82496
2018-08-17T15:38:08.640Z,80000
2018-08-17T15:39:18.223Z,77856
2018-08-17T15:40:27.820Z,78144
2018-08-17T15:41:37.684Z,79008
2018-08-17T15:42:47.554Z,76672